sensor_id;sensor_type;location;lat;lon;timestamp;pressure;altitude;pressure_sealevel;temperature;humidity
50977;BME280;36992;48.200;12.418;2023-12-20T00:00:55;96730.03;;;6.60;51.39
50977;BME280;36992;48.200;12.418;2023-12-20T00:03:24;96728.97;;;6.61;51.53
50977;BME280;36992;48.200;12.418;2023-12-20T00:05:51;96731.66;;;6.61;51.26
50977;BME280;36992;48.200;12.418;2023-12-20T00:08:17;96731.38;;;6.63;50.80
50977;BME280;36992;48.200;12.418;2023-12-20T00:10:44;96701.13;;;6.63;50.96
50977;BME280;36992;48.200;12.418;2023-12-20T00:13:11;96711.84;;;6.63;50.55
50977;BME280;36992;48.200;12.418;2023-12-20T00:15:37;96702.19;;;6.61;50.65
50977;BME280;36992;48.200;12.418;2023-12-20T00:18:06;96712.91;;;6.61;50.70
50977;BME280;36992;48.200;12.418;2023-12-20T00:20:32;96716.13;;;6.58;50.66
50977;BME280;36992;48.200;12.418;2023-12-20T00:22:59;96699.25;;;6.58;50.36
50977;BME280;36992;48.200;12.418;2023-12-20T00:25:25;96703.81;;;6.57;49.67
50977;BME280;36992;48.200;12.418;2023-12-20T00:27:52;96709.97;;;6.58;50.17
50977;BME280;36992;48.200;12.418;2023-12-20T00:30:18;96699.25;;;6.58;50.04
50977;BME280;36992;48.200;12.418;2023-12-20T00:32:45;96690.97;;;6.59;50.15
50977;BME280;36992;48.200;12.418;2023-12-20T00:35:14;96683.47;;;6.61;49.70
50977;BME280;36992;48.200;12.418;2023-12-20T00:37:40;96674.91;;;6.59;49.84
50977;BME280;36992;48.200;12.418;2023-12-20T00:40:07;96679.19;;;6.60;50.17
50977;BME280;36992;48.200;12.418;2023-12-20T00:42:34;96681.88;;;6.60;49.78
50977;BME280;36992;48.200;12.418;2023-12-20T00:45:01;96671.69;;;6.63;49.67
50977;BME280;36992;48.200;12.418;2023-12-20T00:47:28;96654.56;;;6.64;49.69
50977;BME280;36992;48.200;12.418;2023-12-20T00:49:54;96661.53;;;6.65;48.90
50977;BME280;36992;48.200;12.418;2023-12-20T00:52:22;96668.50;;;6.66;48.52
50977;BME280;36992;48.200;12.418;2023-12-20T00:54:49;96668.50;;;6.66;48.25
50977;BME280;36992;48.200;12.418;2023-12-20T00:57:15;96682.13;;;6.64;47.99
50977;BME280;36992;48.200;12.418;2023-12-20T00:59:42;96677.31;;;6.66;48.13
50977;BME280;36992;48.200;12.418;2023-12-20T01:02:08;96684.28;;;6.67;47.99
50977;BME280;36992;48.200;12.418;2023-12-20T01:04:35;96685.06;;;6.68;47.88
50977;BME280;36992;48.200;12.418;2023-12-20T01:07:01;96670.09;;;6.67;47.93
50977;BME280;36992;48.200;12.418;2023-12-20T01:09:29;96660.47;;;6.71;48.23
50977;BME280;36992;48.200;12.418;2023-12-20T01:11:56;96657.78;;;6.71;48.31
50977;BME280;36992;48.200;12.418;2023-12-20T01:14:22;96654.56;;;6.74;48.12
50977;BME280;36992;48.200;12.418;2023-12-20T01:16:49;96654.28;;;6.75;47.30
50977;BME280;36992;48.200;12.418;2023-12-20T01:19:16;96643.84;;;6.79;47.57
50977;BME280;36992;48.200;12.418;2023-12-20T01:21:43;96628.31;;;6.81;47.47
50977;BME280;36992;48.200;12.418;2023-12-20T01:24:09;96633.13;;;6.84;47.59
50977;BME280;36992;48.200;12.418;2023-12-20T01:26:37;96628.84;;;6.88;47.91
50977;BME280;36992;48.200;12.418;2023-12-20T01:29:04;96630.47;;;6.90;47.65
50977;BME280;36992;48.200;12.418;2023-12-20T01:31:30;96616.50;;;6.93;47.28
50977;BME280;36992;48.200;12.418;2023-12-20T01:33:57;96613.31;;;6.96;47.43
50977;BME280;36992;48.200;12.418;2023-12-20T01:36:23;96607.41;;;6.99;47.76
50977;BME280;36992;48.200;12.418;2023-12-20T01:38:50;96609.00;;;7.00;47.92
50977;BME280;36992;48.200;12.418;2023-12-20T01:41:16;96607.94;;;7.01;47.75
50977;BME280;36992;48.200;12.418;2023-12-20T01:43:44;96612.75;;;7.04;48.23
50977;BME280;36992;48.200;12.418;2023-12-20T01:46:11;96603.91;;;7.04;47.65
50977;BME280;36992;48.200;12.418;2023-12-20T01:48:38;96576.31;;;7.03;47.83
50977;BME280;36992;48.200;12.418;2023-12-20T01:51:05;96572.56;;;7.04;48.29
50977;BME280;36992;48.200;12.418;2023-12-20T01:53:31;96584.88;;;7.05;48.39
50977;BME280;36992;48.200;12.418;2023-12-20T01:55:58;96584.09;;;7.05;47.61
50977;BME280;36992;48.200;12.418;2023-12-20T01:58:25;96574.97;;;7.06;47.85
50977;BME280;36992;48.200;12.418;2023-12-20T02:00:54;96575.78;;;7.06;48.05
50977;BME280;36992;48.200;12.418;2023-12-20T02:03:21;96577.13;;;7.04;47.85
50977;BME280;36992;48.200;12.418;2023-12-20T02:05:47;96579.00;;;7.03;47.56
50977;BME280;36992;48.200;12.418;2023-12-20T02:08:14;96581.69;;;7.03;47.82
50977;BME280;36992;48.200;12.418;2023-12-20T02:10:40;96587.03;;;7.03;48.25
50977;BME280;36992;48.200;12.418;2023-12-20T02:13:07;96585.44;;;7.02;47.90
50977;BME280;36992;48.200;12.418;2023-12-20T02:15:33;96580.09;;;7.02;48.40
50977;BME280;36992;48.200;12.418;2023-12-20T02:18:04;96569.63;;;7.06;48.33
50977;BME280;36992;48.200;12.418;2023-12-20T02:20:30;96556.50;;;7.04;48.22
50977;BME280;36992;48.200;12.418;2023-12-20T02:22:58;96548.19;;;7.06;48.04
50977;BME280;36992;48.200;12.418;2023-12-20T02:25:24;96557.31;;;7.05;47.97
50977;BME280;36992;48.200;12.418;2023-12-20T02:27:51;96563.47;;;7.05;47.86
50977;BME280;36992;48.200;12.418;2023-12-20T02:30:18;96552.75;;;7.05;47.64
50977;BME280;36992;48.200;12.418;2023-12-20T02:32:44;96548.97;;;7.06;48.10
50977;BME280;36992;48.200;12.418;2023-12-20T02:35:11;96549.53;;;7.08;47.75
50977;BME280;36992;48.200;12.418;2023-12-20T02:37:37;96539.09;;;7.07;47.92
50977;BME280;36992;48.200;12.418;2023-12-20T02:40:06;96527.53;;;7.11;48.32
50977;BME280;36992;48.200;12.418;2023-12-20T02:42:33;96535.06;;;7.09;47.67
50977;BME280;36992;48.200;12.418;2023-12-20T02:45:00;96528.63;;;7.10;48.03
50977;BME280;36992;48.200;12.418;2023-12-20T02:47:26;96527.81;;;7.10;47.86
50977;BME280;36992;48.200;12.418;2023-12-20T02:49:52;96517.38;;;7.13;48.04
50977;BME280;36992;48.200;12.418;2023-12-20T02:52:19;96512.00;;;7.13;48.01
50977;BME280;36992;48.200;12.418;2023-12-20T02:54:45;96505.56;;;7.14;47.88
50977;BME280;36992;48.200;12.418;2023-12-20T02:57:13;96496.19;;;7.17;47.97
50977;BME280;36992;48.200;12.418;2023-12-20T02:59:39;96505.28;;;7.16;48.40
50977;BME280;36992;48.200;12.418;2023-12-20T03:02:06;96510.63;;;7.16;47.67
50977;BME280;36992;48.200;12.418;2023-12-20T03:04:32;96516.81;;;7.17;47.95
50977;BME280;36992;48.200;12.418;2023-12-20T03:06:59;96522.97;;;7.17;47.85
50977;BME280;36992;48.200;12.418;2023-12-20T03:09:25;96516.81;;;7.17;47.84
50977;BME280;36992;48.200;12.418;2023-12-20T03:11:52;96512.81;;;7.14;47.72
50977;BME280;36992;48.200;12.418;2023-12-20T03:14:20;96514.13;;;7.17;48.11
50977;BME280;36992;48.200;12.418;2023-12-20T03:16:47;96515.47;;;7.14;48.11
50977;BME280;36992;48.200;12.418;2023-12-20T03:19:14;96515.75;;;7.12;47.89
50977;BME280;36992;48.200;12.418;2023-12-20T03:21:41;96512.53;;;7.15;48.27
50977;BME280;36992;48.200;12.418;2023-12-20T03:24:08;96498.06;;;7.17;48.04
50977;BME280;36992;48.200;12.418;2023-12-20T03:26:34;96493.78;;;7.15;48.14
50977;BME280;36992;48.200;12.418;2023-12-20T03:29:01;96500.22;;;7.14;47.72
50977;BME280;36992;48.200;12.418;2023-12-20T03:31:29;96496.97;;;7.18;48.24
50977;BME280;36992;48.200;12.418;2023-12-20T03:33:55;96500.72;;;7.17;47.83
50977;BME280;36992;48.200;12.418;2023-12-20T03:36:22;96495.38;;;7.17;48.41
50977;BME280;36992;48.200;12.418;2023-12-20T03:38:48;96504.50;;;7.15;48.15
50977;BME280;36992;48.200;12.418;2023-12-20T03:41:15;96507.19;;;7.15;48.28
50977;BME280;36992;48.200;12.418;2023-12-20T03:43:41;96510.63;;;7.16;48.12
50977;BME280;36992;48.200;12.418;2023-12-20T03:46:08;96511.44;;;7.17;47.86
50977;BME280;36992;48.200;12.418;2023-12-20T03:48:36;96518.41;;;7.18;48.13
50977;BME280;36992;48.200;12.418;2023-12-20T03:51:02;96514.41;;;7.15;47.77
50977;BME280;36992;48.200;12.418;2023-12-20T03:53:29;96505.28;;;7.16;47.81
50977;BME280;36992;48.200;12.418;2023-12-20T03:55:55;96508.25;;;7.14;47.73
50977;BME280;36992;48.200;12.418;2023-12-20T03:58:22;96509.84;;;7.15;47.83
50977;BME280;36992;48.200;12.418;2023-12-20T04:00:48;96505.00;;;7.18;47.85
50977;BME280;36992;48.200;12.418;2023-12-20T04:03:15;96508.25;;;7.20;47.93
50977;BME280;36992;48.200;12.418;2023-12-20T04:05:42;96520.25;;;7.22;48.25
50977;BME280;36992;48.200;12.418;2023-12-20T04:08:09;96528.03;;;7.24;48.32
50977;BME280;36992;48.200;12.418;2023-12-20T04:10:36;96525.91;;;7.26;48.04
50977;BME280;36992;48.200;12.418;2023-12-20T04:13:03;96537.41;;;7.26;47.99
50977;BME280;36992;48.200;12.418;2023-12-20T04:15:30;96538.22;;;7.27;47.50
50977;BME280;36992;48.200;12.418;2023-12-20T04:17:56;96546.75;;;7.29;47.76
50977;BME280;36992;48.200;12.418;2023-12-20T04:20:23;96543.81;;;7.31;47.70
50977;BME280;36992;48.200;12.418;2023-12-20T04:22:51;96546.75;;;7.34;48.32
50977;BME280;36992;48.200;12.418;2023-12-20T04:25:17;96550.22;;;7.35;48.12
50977;BME280;36992;48.200;12.418;2023-12-20T04:27:43;96550.22;;;7.35;47.77
50977;BME280;36992;48.200;12.418;2023-12-20T04:30:11;96566.03;;;7.36;47.62
50977;BME280;36992;48.200;12.418;2023-12-20T04:32:37;96559.59;;;7.37;47.47
50977;BME280;36992;48.200;12.418;2023-12-20T04:35:04;96569.25;;;7.38;47.53
50977;BME280;36992;48.200;12.418;2023-12-20T04:37:30;96567.88;;;7.41;47.92
50977;BME280;36992;48.200;12.418;2023-12-20T04:39:58;96575.09;;;7.46;47.86
50977;BME280;36992;48.200;12.418;2023-12-20T04:42:24;96569.75;;;7.46;47.63
50977;BME280;36992;48.200;12.418;2023-12-20T04:44:51;96582.84;;;7.47;47.34
50977;BME280;36992;48.200;12.418;2023-12-20T04:47:17;96575.34;;;7.49;47.80
50977;BME280;36992;48.200;12.418;2023-12-20T04:49:44;96565.16;;;7.51;47.96
50977;BME280;36992;48.200;12.418;2023-12-20T04:52:10;96563.53;;;7.55;47.88
50977;BME280;36992;48.200;12.418;2023-12-20T04:54:37;96569.41;;;7.58;48.05
50977;BME280;36992;48.200;12.418;2023-12-20T04:57:05;96560.53;;;7.62;48.31
50977;BME280;36992;48.200;12.418;2023-12-20T04:59:31;96557.06;;;7.62;48.57
50977;BME280;36992;48.200;12.418;2023-12-20T05:01:58;96560.25;;;7.64;48.61
50977;BME280;36992;48.200;12.418;2023-12-20T05:04:24;96560.78;;;7.66;48.81
50977;BME280;36992;48.200;12.418;2023-12-20T05:06:50;96564.28;;;7.66;48.47
50977;BME280;36992;48.200;12.418;2023-12-20T05:09:17;96564.00;;;7.68;48.45
50977;BME280;36992;48.200;12.418;2023-12-20T05:11:44;96568.28;;;7.69;48.42
50977;BME280;36992;48.200;12.418;2023-12-20T05:14:11;96579.81;;;7.69;48.75
50977;BME280;36992;48.200;12.418;2023-12-20T05:16:38;96578.50;;;7.67;48.85
50977;BME280;36992;48.200;12.418;2023-12-20T05:19:04;96576.88;;;7.66;48.52
50977;BME280;36992;48.200;12.418;2023-12-20T05:21:32;96587.59;;;7.66;48.46
50977;BME280;36992;48.200;12.418;2023-12-20T05:23:58;96591.34;;;7.65;48.59
50977;BME280;36992;48.200;12.418;2023-12-20T05:26:25;96593.25;;;7.64;48.87
50977;BME280;36992;48.200;12.418;2023-12-20T05:28:52;96605.84;;;7.64;49.24
50977;BME280;36992;48.200;12.418;2023-12-20T05:31:20;96608.53;;;7.64;49.44
50977;BME280;36992;48.200;12.418;2023-12-20T05:33:46;96612.56;;;7.61;49.29
50977;BME280;36992;48.200;12.418;2023-12-20T05:36:13;96613.63;;;7.60;49.74
50977;BME280;36992;48.200;12.418;2023-12-20T05:38:40;96624.34;;;7.60;49.79
50977;BME280;36992;48.200;12.418;2023-12-20T05:41:06;96624.63;;;7.59;50.00
50977;BME280;36992;48.200;12.418;2023-12-20T05:43:33;96637.25;;;7.58;49.70
50977;BME280;36992;48.200;12.418;2023-12-20T05:45:59;96637.25;;;7.58;50.06
50977;BME280;36992;48.200;12.418;2023-12-20T05:48:27;96641.53;;;7.59;51.44
50977;BME280;36992;48.200;12.418;2023-12-20T05:50:54;96641.00;;;7.57;52.03
50977;BME280;36992;48.200;12.418;2023-12-20T05:53:20;96647.97;;;7.58;54.33
50977;BME280;36992;48.200;12.418;2023-12-20T05:55:47;96655.47;;;7.56;56.50
50977;BME280;36992;48.200;12.418;2023-12-20T05:58:13;96649.84;;;7.58;57.64
50977;BME280;36992;48.200;12.418;2023-12-20T06:00:40;96657.06;;;7.62;56.72
50977;BME280;36992;48.200;12.418;2023-12-20T06:03:06;96658.13;;;7.66;57.26
50977;BME280;36992;48.200;12.418;2023-12-20T06:05:34;96658.38;;;7.70;57.61
50977;BME280;36992;48.200;12.418;2023-12-20T06:08:01;96667.22;;;7.71;58.16
50977;BME280;36992;48.200;12.418;2023-12-20T06:10:28;96653.81;;;7.71;58.94
50977;BME280;36992;48.200;12.418;2023-12-20T06:12:54;96662.91;;;7.75;58.69
50977;BME280;36992;48.200;12.418;2023-12-20T06:15:21;96666.41;;;7.75;58.89
50977;BME280;36992;48.200;12.418;2023-12-20T06:17:48;96670.41;;;7.78;59.00
50977;BME280;36992;48.200;12.418;2023-12-20T06:20:15;96673.59;;;7.80;59.10
50977;BME280;36992;48.200;12.418;2023-12-20T06:22:43;96672.53;;;7.81;58.85
50977;BME280;36992;48.200;12.418;2023-12-20T06:25:09;96675.22;;;7.81;58.78
50977;BME280;36992;48.200;12.418;2023-12-20T06:27:36;96674.69;;;7.84;58.92
50977;BME280;36992;48.200;12.418;2023-12-20T06:30:03;96674.09;;;7.87;58.21
50977;BME280;36992;48.200;12.418;2023-12-20T06:32:29;96675.75;;;7.88;58.25
50977;BME280;36992;48.200;12.418;2023-12-20T06:34:56;96681.88;;;7.89;58.92
50977;BME280;36992;48.200;12.418;2023-12-20T06:37:22;96674.34;;;7.91;58.55
50977;BME280;36992;48.200;12.418;2023-12-20T06:39:50;96680.78;;;7.95;57.96
50977;BME280;36992;48.200;12.418;2023-12-20T06:42:17;96682.97;;;7.93;58.22
50977;BME280;36992;48.200;12.418;2023-12-20T06:44:43;96685.38;;;7.94;58.62
50977;BME280;36992;48.200;12.418;2023-12-20T06:47:10;96693.69;;;7.93;58.94
50977;BME280;36992;48.200;12.418;2023-12-20T06:49:36;96690.72;;;7.94;58.43
50977;BME280;36992;48.200;12.418;2023-12-20T06:52:03;96689.09;;;7.93;58.95
50977;BME280;36992;48.200;12.418;2023-12-20T06:54:30;96696.09;;;7.94;58.85
50977;BME280;36992;48.200;12.418;2023-12-20T06:56:57;96697.69;;;7.95;58.61
50977;BME280;36992;48.200;12.418;2023-12-20T06:59:24;96704.16;;;7.94;58.88
50977;BME280;36992;48.200;12.418;2023-12-20T07:01:51;96717.56;;;7.94;58.90
50977;BME280;36992;48.200;12.418;2023-12-20T07:04:17;96718.91;;;7.92;58.91
50977;BME280;36992;48.200;12.418;2023-12-20T07:06:47;96719.69;;;7.92;58.96
50977;BME280;36992;48.200;12.418;2023-12-20T07:09:13;96722.09;;;7.94;58.63
50977;BME280;36992;48.200;12.418;2023-12-20T07:11:40;96727.47;;;7.94;59.13
50977;BME280;36992;48.200;12.418;2023-12-20T07:14:08;96732.28;;;7.97;58.49
50977;BME280;36992;48.200;12.418;2023-12-20T07:16:35;96734.44;;;7.95;59.05
50977;BME280;36992;48.200;12.418;2023-12-20T07:19:01;96743.56;;;7.94;59.22
50977;BME280;36992;48.200;12.418;2023-12-20T07:21:28;96744.38;;;7.94;59.23
50977;BME280;36992;48.200;12.418;2023-12-20T07:23:54;96745.97;;;7.95;59.13
50977;BME280;36992;48.200;12.418;2023-12-20T07:26:21;96744.91;;;7.96;58.51
50977;BME280;36992;48.200;12.418;2023-12-20T07:28:48;96742.22;;;7.96;58.18
50977;BME280;36992;48.200;12.418;2023-12-20T07:31:16;96747.84;;;7.95;58.35
50977;BME280;36992;48.200;12.418;2023-12-20T07:33:43;96763.69;;;7.91;58.06
50977;BME280;36992;48.200;12.418;2023-12-20T07:36:09;96768.25;;;7.91;57.73
50977;BME280;36992;48.200;12.418;2023-12-20T07:38:36;96768.53;;;7.89;58.21
50977;BME280;36992;48.200;12.418;2023-12-20T07:41:03;96772.31;;;7.88;57.96
50977;BME280;36992;48.200;12.418;2023-12-20T07:43:30;96775.50;;;7.85;57.97
50977;BME280;36992;48.200;12.418;2023-12-20T07:45:56;96773.66;;;7.86;57.98
50977;BME280;36992;48.200;12.418;2023-12-20T07:48:24;96783.03;;;7.83;58.24
50977;BME280;36992;48.200;12.418;2023-12-20T07:50:51;96785.16;;;7.81;58.50
50977;BME280;36992;48.200;12.418;2023-12-20T07:53:19;96771.75;;;7.81;58.38
50977;BME280;36992;48.200;12.418;2023-12-20T07:55:45;96763.72;;;7.81;58.64
50977;BME280;36992;48.200;12.418;2023-12-20T07:58:12;96781.69;;;7.80;58.79
50977;BME280;36992;48.200;12.418;2023-12-20T08:00:38;96785.47;;;7.79;58.39
50977;BME280;36992;48.200;12.418;2023-12-20T08:03:05;96790.81;;;7.79;58.30
50977;BME280;36992;48.200;12.418;2023-12-20T08:05:33;96777.13;;;7.81;58.40
50977;BME280;36992;48.200;12.418;2023-12-20T08:08:00;96790.56;;;7.76;58.65
50977;BME280;36992;48.200;12.418;2023-12-20T08:10:26;96784.66;;;7.79;58.56
50977;BME280;36992;48.200;12.418;2023-12-20T08:12:54;96779.28;;;7.79;58.50
50977;BME280;36992;48.200;12.418;2023-12-20T08:15:21;96775.53;;;7.80;58.70
50977;BME280;36992;48.200;12.418;2023-12-20T08:17:47;96780.09;;;7.79;58.59
50977;BME280;36992;48.200;12.418;2023-12-20T08:20:16;96787.84;;;7.81;58.84
50977;BME280;36992;48.200;12.418;2023-12-20T08:22:43;96792.94;;;7.82;59.01
50977;BME280;36992;48.200;12.418;2023-12-20T08:25:10;96783.03;;;7.83;58.71
50977;BME280;36992;48.200;12.418;2023-12-20T08:27:39;96791.09;;;7.83;58.88
50977;BME280;36992;48.200;12.418;2023-12-20T08:30:08;96793.47;;;7.85;58.91
50977;BME280;36992;48.200;12.418;2023-12-20T08:32:35;96792.16;;;7.82;58.69
50977;BME280;36992;48.200;12.418;2023-12-20T08:35:01;96801.81;;;7.83;59.04
50977;BME280;36992;48.200;12.418;2023-12-20T08:37:29;96803.69;;;7.82;59.08
50977;BME280;36992;48.200;12.418;2023-12-20T08:39:57;96802.59;;;7.83;58.95
50977;BME280;36992;48.200;12.418;2023-12-20T08:42:23;96811.72;;;7.82;59.19
50977;BME280;36992;48.200;12.418;2023-12-20T08:44:56;96809.84;;;7.83;59.24
50977;BME280;36992;48.200;12.418;2023-12-20T08:47:22;96803.41;;;7.84;58.71
50977;BME280;36992;48.200;12.418;2023-12-20T08:49:49;96808.78;;;7.84;59.00
50977;BME280;36992;48.200;12.418;2023-12-20T08:52:15;96803.41;;;7.84;59.16
50977;BME280;36992;48.200;12.418;2023-12-20T08:54:42;96803.41;;;7.84;59.13
50977;BME280;36992;48.200;12.418;2023-12-20T08:57:10;96802.34;;;7.85;59.15
50977;BME280;36992;48.200;12.418;2023-12-20T08:59:37;96800.72;;;7.84;59.19
50977;BME280;36992;48.200;12.418;2023-12-20T09:02:04;96809.31;;;7.86;58.99
50977;BME280;36992;48.200;12.418;2023-12-20T09:04:30;96805.84;;;7.86;59.04
50977;BME280;36992;48.200;12.418;2023-12-20T09:06:59;96810.63;;;7.89;58.83
50977;BME280;36992;48.200;12.418;2023-12-20T09:09:26;96809.31;;;7.86;59.23
50977;BME280;36992;48.200;12.418;2023-12-20T09:11:53;96809.31;;;7.86;59.03
50977;BME280;36992;48.200;12.418;2023-12-20T09:14:20;96804.47;;;7.88;58.85
50977;BME280;36992;48.200;12.418;2023-12-20T09:16:47;96806.88;;;7.85;58.87
50977;BME280;36992;48.200;12.418;2023-12-20T09:19:16;96816.81;;;7.84;58.90
50977;BME280;36992;48.200;12.418;2023-12-20T09:21:42;96816.31;;;7.82;58.97
50977;BME280;36992;48.200;12.418;2023-12-20T09:24:09;96814.66;;;7.81;58.99
50977;BME280;36992;48.200;12.418;2023-12-20T09:26:36;96800.47;;;7.80;59.19
50977;BME280;36992;48.200;12.418;2023-12-20T09:29:02;96805.56;;;7.82;58.98
50977;BME280;36992;48.200;12.418;2023-12-20T09:31:30;96808.25;;;7.82;58.92
50977;BME280;36992;48.200;12.418;2023-12-20T09:33:57;96812.00;;;7.81;58.95
50977;BME280;36992;48.200;12.418;2023-12-20T09:36:23;96806.09;;;7.79;59.44
50977;BME280;36992;48.200;12.418;2023-12-20T09:38:50;96803.94;;;7.81;59.01
50977;BME280;36992;48.200;12.418;2023-12-20T09:41:17;96807.19;;;7.83;58.61
50977;BME280;36992;48.200;12.418;2023-12-20T09:43:43;96803.94;;;7.81;59.12
50977;BME280;36992;48.200;12.418;2023-12-20T09:46:11;96801.00;;;7.82;58.90
50977;BME280;36992;48.200;12.418;2023-12-20T09:48:40;96801.81;;;7.83;58.85
50977;BME280;36992;48.200;12.418;2023-12-20T09:51:07;96802.88;;;7.82;58.96
50977;BME280;36992;48.200;12.418;2023-12-20T09:53:36;96796.97;;;7.85;58.75
50977;BME280;36992;48.200;12.418;2023-12-20T09:56:05;96801.50;;;7.85;59.01
50977;BME280;36992;48.200;12.418;2023-12-20T09:58:32;96807.19;;;7.83;59.07
50977;BME280;36992;48.200;12.418;2023-12-20T10:00:59;96798.84;;;7.85;59.06
50977;BME280;36992;48.200;12.418;2023-12-20T10:03:26;96797.22;;;7.83;59.32
50977;BME280;36992;48.200;12.418;2023-12-20T10:05:57;96805.53;;;7.87;58.99
50977;BME280;36992;48.200;12.418;2023-12-20T10:08:24;96801.25;;;7.86;59.29
50977;BME280;36992;48.200;12.418;2023-12-20T10:10:50;96811.97;;;7.86;59.26
50977;BME280;36992;48.200;12.418;2023-12-20T10:13:17;96809.31;;;7.86;58.84
50977;BME280;36992;48.200;12.418;2023-12-20T10:15:44;96803.94;;;7.86;58.78
50977;BME280;36992;48.200;12.418;2023-12-20T10:18:11;96796.69;;;7.87;59.21
50977;BME280;36992;48.200;12.418;2023-12-20T10:20:40;96796.16;;;7.90;58.89
50977;BME280;36992;48.200;12.418;2023-12-20T10:23:10;96791.59;;;7.90;59.28
50977;BME280;36992;48.200;12.418;2023-12-20T10:25:37;96792.94;;;7.88;59.59
50977;BME280;36992;48.200;12.418;2023-12-20T10:28:11;96787.84;;;7.91;59.20
50977;BME280;36992;48.200;12.418;2023-12-20T10:30:39;96791.06;;;7.88;59.88
50977;BME280;36992;48.200;12.418;2023-12-20T10:33:06;96783.03;;;7.88;59.68
50977;BME280;36992;48.200;12.418;2023-12-20T10:35:33;96784.34;;;7.91;59.40
50977;BME280;36992;48.200;12.418;2023-12-20T10:38:03;96777.09;;;7.91;59.77
50977;BME280;36992;48.200;12.418;2023-12-20T10:40:31;96778.19;;;7.90;59.68
50977;BME280;36992;48.200;12.418;2023-12-20T10:42:59;96773.09;;;7.89;60.05
50977;BME280;36992;48.200;12.418;2023-12-20T10:45:27;96768.53;;;7.89;60.09
50977;BME280;36992;48.200;12.418;2023-12-20T10:47:54;96776.03;;;7.87;60.25
50977;BME280;36992;48.200;12.418;2023-12-20T10:50:22;96768.00;;;7.87;60.29
50977;BME280;36992;48.200;12.418;2023-12-20T10:52:50;96774.69;;;7.90;60.40
50977;BME280;36992;48.200;12.418;2023-12-20T10:55:20;96778.44;;;7.89;60.36
50977;BME280;36992;48.200;12.418;2023-12-20T10:57:49;96767.97;;;7.92;60.21
50977;BME280;36992;48.200;12.418;2023-12-20T11:00:18;96764.22;;;7.93;60.28
50977;BME280;36992;48.200;12.418;2023-12-20T11:02:44;96754.28;;;7.94;60.09
50977;BME280;36992;48.200;12.418;2023-12-20T11:05:19;96750.78;;;7.99;60.13
50977;BME280;36992;48.200;12.418;2023-12-20T11:07:52;96751.59;;;7.99;60.12
50977;BME280;36992;48.200;12.418;2023-12-20T11:10:25;96746.22;;;7.99;60.39
50977;BME280;36992;48.200;12.418;2023-12-20T11:12:58;96748.09;;;8.04;59.63
50977;BME280;36992;48.200;12.418;2023-12-20T11:15:28;96746.47;;;8.03;59.90
50977;BME280;36992;48.200;12.418;2023-12-20T11:17:56;96752.63;;;8.03;60.13
50977;BME280;36992;48.200;12.418;2023-12-20T11:20:23;96745.91;;;8.06;60.23
50977;BME280;36992;48.200;12.418;2023-12-20T11:22:53;96751.53;;;8.09;60.41
50977;BME280;36992;48.200;12.418;2023-12-20T11:25:20;96752.34;;;8.10;60.37
50977;BME280;36992;48.200;12.418;2023-12-20T11:28:07;96754.47;;;8.18;59.32
50977;BME280;36992;48.200;12.418;2023-12-20T11:30:42;96754.47;;;8.18;59.62
50977;BME280;36992;48.200;12.418;2023-12-20T11:33:08;96742.13;;;8.17;59.76
50977;BME280;36992;48.200;12.418;2023-12-20T11:35:35;96741.03;;;8.18;59.83
50977;BME280;36992;48.200;12.418;2023-12-20T11:38:02;96737.28;;;8.19;59.22
50977;BME280;36992;48.200;12.418;2023-12-20T11:40:33;96744.78;;;8.22;59.08
50977;BME280;36992;48.200;12.418;2023-12-20T11:43:02;96745.31;;;8.24;58.72
50977;BME280;36992;48.200;12.418;2023-12-20T11:45:29;96737.56;;;8.23;58.94
50977;BME280;36992;48.200;12.418;2023-12-20T11:47:56;96739.94;;;8.24;59.04
50977;BME280;36992;48.200;12.418;2023-12-20T11:50:23;96738.84;;;8.26;59.23
50977;BME280;36992;48.200;12.418;2023-12-20T11:52:51;96741.28;;;8.27;58.70
50977;BME280;36992;48.200;12.418;2023-12-20T11:55:18;96734.56;;;8.24;59.00
50977;BME280;36992;48.200;12.418;2023-12-20T11:57:45;96719.28;;;8.25;59.39
50977;BME280;36992;48.200;12.418;2023-12-20T12:00:14;96715.25;;;8.28;59.51
50977;BME280;36992;48.200;12.418;2023-12-20T12:02:40;96715.78;;;8.24;59.58
50977;BME280;36992;48.200;12.418;2023-12-20T12:05:07;96709.06;;;8.27;59.42
50977;BME280;36992;48.200;12.418;2023-12-20T12:07:34;96709.88;;;8.28;59.60
50977;BME280;36992;48.200;12.418;2023-12-20T12:10:01;96707.97;;;8.28;59.31
50977;BME280;36992;48.200;12.418;2023-12-20T12:12:28;96703.16;;;8.30;59.18
50977;BME280;36992;48.200;12.418;2023-12-20T12:14:56;96710.13;;;8.31;58.90
50977;BME280;36992;48.200;12.418;2023-12-20T12:17:24;96694.25;;;8.35;58.92
50977;BME280;36992;48.200;12.418;2023-12-20T12:19:51;96694.78;;;8.37;58.39
50977;BME280;36992;48.200;12.418;2023-12-20T12:22:27;96690.75;;;8.40;58.33
50977;BME280;36992;48.200;12.418;2023-12-20T12:24:58;96693.16;;;8.41;58.40
50977;BME280;36992;48.200;12.418;2023-12-20T12:27:25;96686.69;;;8.42;58.45
50977;BME280;36992;48.200;12.418;2023-12-20T12:30:03;96682.91;;;8.48;58.23
50977;BME280;36992;48.200;12.418;2023-12-20T12:32:33;96697.13;;;8.49;57.96
50977;BME280;36992;48.200;12.418;2023-12-20T12:35:00;96692.31;;;8.46;58.08
50977;BME280;36992;48.200;12.418;2023-12-20T12:37:28;96700.59;;;8.49;57.75
50977;BME280;36992;48.200;12.418;2023-12-20T12:39:55;96685.06;;;8.52;57.97
50977;BME280;36992;48.200;12.418;2023-12-20T12:42:22;96687.19;;;8.55;57.90
50977;BME280;36992;48.200;12.418;2023-12-20T12:44:51;96685.81;;;8.57;57.96
50977;BME280;36992;48.200;12.418;2023-12-20T12:47:17;96680.19;;;8.59;58.12
50977;BME280;36992;48.200;12.418;2023-12-20T12:49:45;96676.94;;;8.62;57.64
50977;BME280;36992;48.200;12.418;2023-12-20T12:52:12;96677.75;;;8.62;58.03
50977;BME280;36992;48.200;12.418;2023-12-20T12:54:38;96685.78;;;8.62;57.63
50977;BME280;36992;48.200;12.418;2023-12-20T12:57:05;96696.25;;;8.64;57.79
50977;BME280;36992;48.200;12.418;2023-12-20T12:59:31;96689.25;;;8.63;57.88